Time;durP1;ratioP1;P1;durP2;ratioP2;P2;SDS_P1;SDS_P2;PMS_P1;PMS_P2;Temp;Humidity;BMP_temperature;BMP_pressure;BME280_temperature;BME280_humidity;BME280_pressure;Samples;Min_cycle;Max_cycle;Signal;HPM_P1;HPM_P2
2023/04/03 00:00:45;;;;;;;;;;;5.40;73.40;;;;;;5073503;28;19908;-40
2023/04/03 00:03:11;;;;;;;;;;;5.40;73.40;;;;;;5074780;28;20284;-37
2023/04/03 00:05:36;;;;;;;;;;;5.40;73.40;;;;;;5074375;28;19915;-39
2023/04/03 00:08:02;;;;;;;;;;;5.40;73.30;;;;;;5074357;28;19912;-36
2023/04/03 00:10:27;;;;;;;;;;;5.40;73.40;;;;;;5074706;28;19909;-39
2023/04/03 00:12:53;;;;;;;;;;;5.30;73.50;;;;;;5074394;28;19912;-38
2023/04/03 00:15:18;;;;;;;;;;;5.30;73.60;;;;;;5074454;28;19977;-39
2023/04/03 00:17:44;;;;;;;;;;;5.30;73.50;;;;;;5074316;28;20376;-39
2023/04/03 00:20:09;;;;;;;;;;;5.30;73.60;;;;;;5074591;28;20249;-39
2023/04/03 00:22:35;;;;;;;;;;;5.30;73.60;;;;;;5074104;28;19916;-39
2023/04/03 00:25:00;;;;;;;;;;;5.30;73.60;;;;;;5074280;28;20001;-38
2023/04/03 00:27:26;;;;;;;;;;;5.30;73.70;;;;;;5074050;28;20377;-40
2023/04/03 00:29:51;;;;;;;;;;;5.30;73.70;;;;;;5074497;28;20316;-38
2023/04/03 00:32:17;;;;;;;;;;;5.20;73.80;;;;;;5074230;28;20429;-40
2023/04/03 00:34:42;;;;;;;;;;;5.20;73.80;;;;;;5074013;28;19951;-38
2023/04/03 00:37:08;;;;;;;;;;;5.30;73.90;;;;;;5074341;28;20374;-39
2023/04/03 00:39:33;;;;;;;;;;;5.20;73.90;;;;;;5074022;28;19909;-37
2023/04/03 00:41:59;;;;;;;;;;;5.20;74.00;;;;;;5074408;28;20356;-37
2023/04/03 00:44:27;;;;;;;;;;;5.20;74.10;;;;;;5074255;28;20421;-39
2023/04/03 00:46:53;;;;;;;;;;;5.20;74.20;;;;;;5073833;28;19908;-38
2023/04/03 00:49:18;;;;;;;;;;;5.20;74.20;;;;;;5072383;28;20333;-40
2023/04/03 00:51:44;;;;;;;;;;;5.20;74.20;;;;;;5073830;28;19924;-37
2023/04/03 00:54:10;;;;;;;;;;;5.20;74.30;;;;;;5073729;28;19916;-38
2023/04/03 00:56:36;;;;;;;;;;;5.20;74.40;;;;;;5073698;28;20363;-39
2023/04/03 00:59:03;;;;;;;;;;;5.20;74.40;;;;;;5073783;28;19944;-38
2023/04/03 01:01:30;;;;;;;;;;;5.20;74.50;;;;;;5073573;28;19979;-38
2023/04/03 01:03:56;;;;;;;;;;;5.20;75.10;;;;;;5073641;28;19908;-39
2023/04/03 01:06:25;;;;;;;;;;;5.20;74.50;;;;;;5073548;28;20318;-39
2023/04/03 01:08:50;;;;;;;;;;;5.20;74.60;;;;;;5073608;28;20340;-40
2023/04/03 01:11:16;;;;;;;;;;;5.10;74.60;;;;;;5072665;28;19963;-39
2023/04/03 01:13:42;;;;;;;;;;;5.10;74.60;;;;;;5073332;28;19909;-39
2023/04/03 01:16:08;;;;;;;;;;;5.10;74.70;;;;;;5073282;28;19909;-41
2023/04/03 01:18:35;;;;;;;;;;;5.10;74.80;;;;;;5073441;28;19943;-39
2023/04/03 01:21:12;;;;;;;;;;;5.10;74.80;;;;;;5073283;28;20295;-40
2023/04/03 01:23:41;;;;;;;;;;;5.10;74.80;;;;;;5073042;28;20237;-41
2023/04/03 01:26:06;;;;;;;;;;;5.10;74.90;;;;;;5072991;28;20007;-41
2023/04/03 01:28:33;;;;;;;;;;;5.10;74.90;;;;;;5072738;28;20003;-37
2023/04/03 01:31:18;;;;;;;;;;;5.10;75.00;;;;;;5072987;28;20025;-37
2023/04/03 01:33:43;;;;;;;;;;;5.00;75.00;;;;;;5073055;28;19908;-38
2023/04/03 01:36:10;;;;;;;;;;;5.00;75.10;;;;;;5072730;28;19912;-39
2023/04/03 01:38:35;;;;;;;;;;;5.00;75.20;;;;;;5071475;28;19913;-40
2023/04/03 01:41:01;;;;;;;;;;;5.00;75.30;;;;;;5072699;28;19995;-36
2023/04/03 01:43:26;;;;;;;;;;;5.00;75.30;;;;;;5073089;28;20274;-37
2023/04/03 01:45:54;;;;;;;;;;;5.00;75.30;;;;;;5071162;28;20386;-36
2023/04/03 01:48:19;;;;;;;;;;;5.00;75.40;;;;;;5071214;28;19917;-37
2023/04/03 01:50:45;;;;;;;;;;;5.00;75.50;;;;;;5072515;28;19916;-39
2023/04/03 01:53:11;;;;;;;;;;;5.00;75.50;;;;;;5072430;28;19915;-39
2023/04/03 01:55:36;;;;;;;;;;;5.00;75.60;;;;;;5072293;28;20011;-40
2023/04/03 01:58:02;;;;;;;;;;;4.90;75.70;;;;;;5072240;28;19909;-38
2023/04/03 02:00:27;;;;;;;;;;;4.90;75.70;;;;;;5072254;28;20390;-40
2023/04/03 02:02:53;;;;;;;;;;;4.90;75.70;;;;;;5072212;28;19924;-38
2023/04/03 02:05:18;;;;;;;;;;;4.90;75.80;;;;;;5072267;28;19919;-39
2023/04/03 02:07:44;;;;;;;;;;;4.90;75.90;;;;;;5071949;28;19943;-38
2023/04/03 02:10:10;;;;;;;;;;;4.90;75.90;;;;;;5070848;28;19909;-38
2023/04/03 02:12:35;;;;;;;;;;;4.90;76.00;;;;;;5072021;28;20367;-39
2023/04/03 02:15:01;;;;;;;;;;;4.80;76.00;;;;;;5071789;28;19908;-38
2023/04/03 02:17:26;;;;;;;;;;;4.80;76.00;;;;;;5071919;28;19980;-36
2023/04/03 02:19:52;;;;;;;;;;;4.80;76.10;;;;;;5071866;28;20435;-38
2023/04/03 02:22:18;;;;;;;;;;;4.80;76.20;;;;;;5070337;28;19920;-39
2023/04/03 02:24:43;;;;;;;;;;;4.80;76.20;;;;;;5071942;28;19916;-37
2023/04/03 02:27:09;;;;;;;;;;;4.70;76.20;;;;;;5071727;28;20324;-39
2023/04/03 02:29:35;;;;;;;;;;;4.70;76.30;;;;;;5071769;28;19913;-40
2023/04/03 02:32:00;;;;;;;;;;;4.70;76.40;;;;;;5071738;28;20049;-36
2023/04/03 02:34:26;;;;;;;;;;;4.70;77.10;;;;;;5071655;28;20003;-38
2023/04/03 02:36:51;;;;;;;;;;;4.70;76.60;;;;;;5071618;28;19908;-37
2023/04/03 02:39:17;;;;;;;;;;;4.60;76.50;;;;;;5071679;28;19940;-39
2023/04/03 02:41:42;;;;;;;;;;;4.60;77.20;;;;;;5071663;28;19909;-37
2023/04/03 02:44:09;;;;;;;;;;;4.60;76.70;;;;;;5071704;28;19915;-39
2023/04/03 02:46:34;;;;;;;;;;;4.60;76.70;;;;;;5071595;28;19947;-38
2023/04/03 02:49:00;;;;;;;;;;;4.60;76.80;;;;;;5071517;28;19956;-39
2023/04/03 02:51:25;;;;;;;;;;;4.60;76.80;;;;;;5071424;28;19962;-39
2023/04/03 02:53:51;;;;;;;;;;;4.60;76.80;;;;;;5071638;28;20494;-38
2023/04/03 02:56:17;;;;;;;;;;;4.60;76.90;;;;;;5071821;28;19908;-39
2023/04/03 02:58:43;;;;;;;;;;;4.60;76.90;;;;;;5071455;28;20287;-38
2023/04/03 03:01:09;;;;;;;;;;;4.60;76.90;;;;;;5071512;28;19961;-40
2023/04/03 03:03:35;;;;;;;;;;;4.60;77.00;;;;;;5071528;28;20014;-38
2023/04/03 03:06:04;;;;;;;;;;;4.50;77.00;;;;;;5071284;28;19992;-40
2023/04/03 03:08:30;;;;;;;;;;;4.50;77.00;;;;;;5071133;28;20011;-37
2023/04/03 03:10:55;;;;;;;;;;;4.50;77.10;;;;;;5071208;28;20336;-39
2023/04/03 03:13:20;;;;;;;;;;;4.50;77.10;;;;;;5071226;28;19982;-37
2023/04/03 03:15:46;;;;;;;;;;;4.50;77.20;;;;;;5071205;28;19908;-39
2023/04/03 03:18:11;;;;;;;;;;;4.40;77.20;;;;;;5071268;28;19954;-38
2023/04/03 03:20:37;;;;;;;;;;;4.40;77.30;;;;;;5071032;28;19908;-39
2023/04/03 03:23:02;;;;;;;;;;;4.40;77.30;;;;;;5070812;28;20031;-42
2023/04/03 03:25:28;;;;;;;;;;;4.40;77.40;;;;;;5071193;28;20390;-39
2023/04/03 03:27:53;;;;;;;;;;;4.40;77.40;;;;;;5070918;28;19929;-38
2023/04/03 03:30:19;;;;;;;;;;;4.30;77.40;;;;;;5071051;28;19916;-38
2023/04/03 03:32:44;;;;;;;;;;;4.30;77.50;;;;;;5071547;28;19974;-39
2023/04/03 03:35:10;;;;;;;;;;;4.30;77.60;;;;;;5072884;28;19912;-36
2023/04/03 03:37:36;;;;;;;;;;;4.30;77.70;;;;;;5075249;28;20396;-39
2023/04/03 03:40:02;;;;;;;;;;;4.20;77.60;;;;;;5074892;28;20042;-51
2023/04/03 03:42:27;;;;;;;;;;;4.20;77.70;;;;;;5074949;28;19951;-39
2023/04/03 03:44:53;;;;;;;;;;;4.20;77.70;;;;;;5074815;28;19951;-38
2023/04/03 03:47:18;;;;;;;;;;;4.20;77.70;;;;;;5074654;28;20016;-39
2023/04/03 03:49:44;;;;;;;;;;;4.20;77.80;;;;;;5074720;28;19936;-39
2023/04/03 03:52:12;;;;;;;;;;;4.20;77.90;;;;;;5074677;28;19919;-39
2023/04/03 03:54:38;;;;;;;;;;;4.10;77.80;;;;;;5074647;28;19913;-39
2023/04/03 03:57:04;;;;;;;;;;;4.20;77.90;;;;;;5074666;28;20395;-38
2023/04/03 03:59:30;;;;;;;;;;;4.10;77.90;;;;;;5074681;28;19912;-39
2023/04/03 04:01:56;;;;;;;;;;;4.10;77.90;;;;;;5074532;28;19912;-37
2023/04/03 04:04:21;;;;;;;;;;;4.10;77.90;;;;;;5074420;28;19913;-36
2023/04/03 04:06:47;;;;;;;;;;;4.10;78.00;;;;;;5074510;28;20399;-40
2023/04/03 04:09:12;;;;;;;;;;;4.10;78.00;;;;;;5074205;28;19916;-37
2023/04/03 04:11:39;;;;;;;;;;;4.00;78.00;;;;;;5074339;28;20367;-40
2023/04/03 04:14:05;;;;;;;;;;;4.00;78.00;;;;;;5073086;28;19962;-39
2023/04/03 04:16:30;;;;;;;;;;;4.00;78.10;;;;;;5074317;28;19916;-38
2023/04/03 04:18:56;;;;;;;;;;;4.00;78.10;;;;;;5074114;28;19923;-38
2023/04/03 04:21:21;;;;;;;;;;;3.90;78.10;;;;;;5074211;28;20390;-37
2023/04/03 04:23:47;;;;;;;;;;;3.90;78.20;;;;;;5073927;28;19924;-38
2023/04/03 04:26:12;;;;;;;;;;;3.90;78.20;;;;;;5074175;28;19912;-36
2023/04/03 04:28:38;;;;;;;;;;;3.90;78.20;;;;;;5073980;28;20357;-39
2023/04/03 04:31:03;;;;;;;;;;;3.90;78.30;;;;;;5072576;28;19917;-39
2023/04/03 04:33:29;;;;;;;;;;;3.80;78.30;;;;;;5074045;28;19912;-40
2023/04/03 04:35:55;;;;;;;;;;;3.80;78.30;;;;;;5073947;28;19916;-38
2023/04/03 04:38:20;;;;;;;;;;;3.80;79.10;;;;;;5074174;28;20280;-37
2023/04/03 04:40:47;;;;;;;;;;;3.80;78.50;;;;;;5073790;28;20244;-38
2023/04/03 04:43:14;;;;;;;;;;;3.70;78.40;;;;;;5074081;28;20340;-38
2023/04/03 04:45:40;;;;;;;;;;;3.70;78.50;;;;;;5073065;28;19921;-38
2023/04/03 04:48:05;;;;;;;;;;;3.70;78.60;;;;;;5071597;28;19916;-38
2023/04/03 04:50:31;;;;;;;;;;;3.60;78.60;;;;;;5073716;28;19913;-38
2023/04/03 04:52:56;;;;;;;;;;;3.60;78.70;;;;;;5073734;28;19914;-42
2023/04/03 04:55:22;;;;;;;;;;;3.60;78.60;;;;;;5073524;28;20561;-39
2023/04/03 04:57:47;;;;;;;;;;;3.60;78.70;;;;;;5073475;28;20037;-39
2023/04/03 05:00:13;;;;;;;;;;;3.60;78.70;;;;;;5073421;28;19955;-38
2023/04/03 05:02:39;;;;;;;;;;;3.60;78.70;;;;;;5073424;28;19917;-40
2023/04/03 05:05:04;;;;;;;;;;;3.50;78.70;;;;;;5073208;28;19912;-40
2023/04/03 05:07:30;;;;;;;;;;;3.60;78.80;;;;;;5073264;28;19927;-39
2023/04/03 05:09:55;;;;;;;;;;;3.50;78.70;;;;;;5073567;28;20483;-40
2023/04/03 05:12:21;;;;;;;;;;;3.50;78.80;;;;;;5073293;28;19912;-38
2023/04/03 05:14:47;;;;;;;;;;;3.50;78.70;;;;;;5073131;28;20418;-39
2023/04/03 05:17:12;;;;;;;;;;;3.50;78.70;;;;;;5073164;28;19962;-39
2023/04/03 05:19:38;;;;;;;;;;;3.50;78.70;;;;;;5073074;28;20077;-39
2023/04/03 05:22:03;;;;;;;;;;;3.50;78.70;;;;;;5073074;28;19971;-39
2023/04/03 05:24:29;;;;;;;;;;;3.50;78.70;;;;;;5072849;28;20015;-40
2023/04/03 05:26:55;;;;;;;;;;;3.50;78.70;;;;;;5073050;28;20276;-38
2023/04/03 05:29:20;;;;;;;;;;;3.50;78.70;;;;;;5072837;28;19916;-39
2023/04/03 05:31:48;;;;;;;;;;;3.50;78.70;;;;;;5072967;28;19966;-38
2023/04/03 05:34:13;;;;;;;;;;;3.50;78.70;;;;;;5072831;28;20008;-38
2023/04/03 05:36:39;;;;;;;;;;;3.50;78.70;;;;;;5072781;28;19960;-38
2023/04/03 05:39:04;;;;;;;;;;;3.50;78.70;;;;;;5072833;28;19913;-38
2023/04/03 05:41:30;;;;;;;;;;;3.50;78.70;;;;;;5072973;28;19913;-39
2023/04/03 05:43:55;;;;;;;;;;;3.50;78.60;;;;;;5072749;28;20359;-37
2023/04/03 05:46:21;;;;;;;;;;;3.50;78.60;;;;;;5073215;28;19919;-40
2023/04/03 05:48:47;;;;;;;;;;;3.50;78.60;;;;;;5072573;28;19931;-40
2023/04/03 05:51:17;;;;;;;;;;;3.50;78.60;;;;;;5072532;28;20307;-40
2023/04/03 05:53:44;;;;;;;;;;;3.50;78.60;;;;;;5072542;28;19919;-38
2023/04/03 05:56:09;;;;;;;;;;;3.50;78.50;;;;;;5072402;28;19970;-37
2023/04/03 05:58:35;;;;;;;;;;;3.50;78.50;;;;;;5070780;28;19920;-37
2023/04/03 06:01:01;;;;;;;;;;;3.60;78.60;;;;;;5072453;28;20364;-38
2023/04/03 06:03:26;;;;;;;;;;;3.60;78.70;;;;;;5070951;28;19913;-38
2023/04/03 06:05:52;;;;;;;;;;;3.60;78.70;;;;;;5072215;28;19939;-38
2023/04/03 06:08:18;;;;;;;;;;;3.60;78.70;;;;;;5072068;28;19956;-38
2023/04/03 06:10:44;;;;;;;;;;;3.60;78.60;;;;;;5072401;28;19973;-38
2023/04/03 06:13:10;;;;;;;;;;;3.60;78.60;;;;;;5072189;28;19912;-39
2023/04/03 06:15:35;;;;;;;;;;;3.70;78.60;;;;;;5072164;28;20369;-39
2023/04/03 06:18:01;;;;;;;;;;;3.70;78.60;;;;;;5072374;28;19912;-40
2023/04/03 06:20:26;;;;;;;;;;;3.70;78.60;;;;;;5072472;28;20391;-39
2023/04/03 06:22:52;;;;;;;;;;;3.70;78.60;;;;;;5071884;28;19944;-38
2023/04/03 06:25:18;;;;;;;;;;;3.80;78.60;;;;;;5072565;28;19998;-39
2023/04/03 06:27:44;;;;;;;;;;;3.80;78.50;;;;;;5071902;28;19925;-39
2023/04/03 06:30:10;;;;;;;;;;;3.80;78.40;;;;;;5071997;28;19920;-40
2023/04/03 06:32:36;;;;;;;;;;;3.80;78.30;;;;;;5072198;28;19918;-38
2023/04/03 06:35:01;;;;;;;;;;;3.90;78.30;;;;;;5071798;28;20360;-48
2023/04/03 06:37:28;;;;;;;;;;;3.90;78.20;;;;;;5071664;28;19985;-36
2023/04/03 06:39:54;;;;;;;;;;;3.90;78.20;;;;;;5071588;28;19919;-38
2023/04/03 06:42:20;;;;;;;;;;;3.90;78.20;;;;;;5071664;28;20350;-40
2023/04/03 06:44:45;;;;;;;;;;;3.90;78.10;;;;;;5071870;28;20003;-39
2023/04/03 06:47:11;;;;;;;;;;;3.90;78.10;;;;;;5071621;28;19912;-41
2023/04/03 06:49:37;;;;;;;;;;;4.00;78.20;;;;;;5071693;28;20356;-38
2023/04/03 06:52:03;;;;;;;;;;;4.00;78.00;;;;;;5071755;28;19913;-38
2023/04/03 06:54:28;;;;;;;;;;;4.10;78.00;;;;;;5071647;28;19940;-40
2023/04/03 06:56:54;;;;;;;;;;;4.10;77.90;;;;;;5071725;28;20070;-41
2023/04/03 06:59:20;;;;;;;;;;;4.20;77.90;;;;;;5071430;28;20494;-44
2023/04/03 07:01:45;;;;;;;;;;;4.20;77.90;;;;;;5071832;28;19912;-38
2023/04/03 07:04:11;;;;;;;;;;;4.20;77.60;;;;;;5071458;28;19912;-39
2023/04/03 07:06:36;;;;;;;;;;;4.30;77.70;;;;;;5071488;28;19916;-37
2023/04/03 07:09:02;;;;;;;;;;;4.30;77.90;;;;;;5071261;28;19936;-41
2023/04/03 07:11:28;;;;;;;;;;;4.30;78.00;;;;;;5075761;28;20026;-38
2023/04/03 07:13:53;;;;;;;;;;;4.30;77.90;;;;;;5075509;28;19912;-38
2023/04/03 07:16:19;;;;;;;;;;;4.30;77.80;;;;;;5074173;28;20336;-40
2023/04/03 07:18:45;;;;;;;;;;;4.40;77.70;;;;;;5075410;28;19913;-38
2023/04/03 07:21:11;;;;;;;;;;;4.40;77.60;;;;;;5075394;28;19916;-39
2023/04/03 07:23:36;;;;;;;;;;;4.40;77.30;;;;;;5075211;28;19921;-39
2023/04/03 07:26:02;;;;;;;;;;;4.40;77.30;;;;;;5075308;28;19955;-40
2023/04/03 07:28:28;;;;;;;;;;;4.40;77.30;;;;;;5075298;28;19917;-38
2023/04/03 07:30:58;;;;;;;;;;;4.40;77.30;;;;;;5075129;28;19912;-39
2023/04/03 07:33:24;;;;;;;;;;;4.50;77.50;;;;;;5075122;28;19912;-39
2023/04/03 07:35:50;;;;;;;;;;;4.50;77.30;;;;;;5075456;28;20257;-40
2023/04/03 07:38:16;;;;;;;;;;;4.50;77.20;;;;;;5074996;28;19922;-38
2023/04/03 07:40:46;;;;;;;;;;;4.60;77.10;;;;;;5074953;28;19935;-40
2023/04/03 07:43:11;;;;;;;;;;;4.60;76.50;;;;;;5074884;28;20280;-40
2023/04/03 07:45:36;;;;;;;;;;;4.60;76.80;;;;;;5074965;28;19920;-38
2023/04/03 07:48:02;;;;;;;;;;;4.60;76.50;;;;;;5074652;28;19924;-40
2023/04/03 07:50:30;;;;;;;;;;;4.70;76.40;;;;;;5074725;28;20320;-37
2023/04/03 07:52:57;;;;;;;;;;;4.70;76.10;;;;;;5075040;28;20364;-38
2023/04/03 07:55:23;;;;;;;;;;;4.70;75.90;;;;;;5074570;28;19912;-37
2023/04/03 07:57:48;;;;;;;;;;;4.80;75.90;;;;;;5074664;28;19966;-38
2023/04/03 08:00:14;;;;;;;;;;;4.80;76.00;;;;;;5074563;28;19923;-37
2023/04/03 08:02:39;;;;;;;;;;;4.80;76.60;;;;;;5074575;28;19998;-40
2023/04/03 08:05:05;;;;;;;;;;;4.90;76.00;;;;;;5074505;28;20003;-37
2023/04/03 08:07:31;;;;;;;;;;;5.00;75.90;;;;;;5074367;28;19916;-40
2023/04/03 08:09:56;;;;;;;;;;;5.00;73.40;;;;;;5074212;28;20363;-40
2023/04/03 08:12:22;;;;;;;;;;;5.00;74.30;;;;;;5074636;28;19956;-44
2023/04/03 08:14:48;;;;;;;;;;;5.10;74.30;;;;;;5074568;28;20029;-40
2023/04/03 08:17:13;;;;;;;;;;;5.10;74.30;;;;;;5074555;28;20323;-38
2023/04/03 08:19:39;;;;;;;;;;;5.10;74.00;;;;;;5074179;28;19961;-38
2023/04/03 08:22:05;;;;;;;;;;;5.20;74.10;;;;;;5073990;28;19932;-39
2023/04/03 08:24:31;;;;;;;;;;;5.30;74.10;;;;;;5073911;28;19924;-40
2023/04/03 08:26:57;;;;;;;;;;;5.40;74.00;;;;;;5073988;28;20003;-38
2023/04/03 08:29:22;;;;;;;;;;;5.40;73.40;;;;;;5074194;28;19999;-40
2023/04/03 08:31:49;;;;;;;;;;;5.50;73.40;;;;;;5074007;28;20350;-40
2023/04/03 08:34:15;;;;;;;;;;;5.60;73.80;;;;;;5073830;28;19912;-38
2023/04/03 08:36:40;;;;;;;;;;;5.70;73.80;;;;;;5072402;28;20368;-39
2023/04/03 08:39:06;;;;;;;;;;;5.80;73.50;;;;;;5073769;28;19962;-47
2023/04/03 08:41:33;;;;;;;;;;;5.90;68.00;;;;;;5074031;28;19944;-40
2023/04/03 08:44:16;;;;;;;;;;;5.90;71.00;;;;;;5073761;28;19916;-39
2023/04/03 08:46:53;;;;;;;;;;;5.80;67.40;;;;;;5073697;28;20019;-39
2023/04/03 08:49:40;;;;;;;;;;;5.80;69.20;;;;;;5073382;28;19966;-38
2023/04/03 08:52:14;;;;;;;;;;;5.90;69.40;;;;;;5073359;28;19913;-38
2023/04/03 08:55:00;;;;;;;;;;;5.90;67.30;;;;;;5072215;28;20007;-38
2023/04/03 08:57:29;;;;;;;;;;;6.00;68.10;;;;;;5073926;28;19920;-39
2023/04/03 08:59:54;;;;;;;;;;;6.00;68.40;;;;;;5073594;28;20079;-43
2023/04/03 09:02:26;;;;;;;;;;;6.10;66.10;;;;;;5074097;28;20005;-38
2023/04/03 09:04:52;;;;;;;;;;;6.10;66.30;;;;;;5073450;28;20013;-40
2023/04/03 09:07:44;;;;;;;;;;;6.20;70.20;;;;;;5073525;28;19912;-37
2023/04/03 09:10:11;;;;;;;;;;;6.30;70.20;;;;;;5072917;28;20297;-40
2023/04/03 09:12:39;;;;;;;;;;;6.40;70.50;;;;;;5073270;28;19916;-39
2023/04/03 09:15:08;;;;;;;;;;;6.60;69.80;;;;;;5071910;28;20402;-37
2023/04/03 09:17:36;;;;;;;;;;;6.70;68.30;;;;;;5073392;28;19913;-40
2023/04/03 09:20:24;;;;;;;;;;;6.70;67.70;;;;;;5073342;28;19920;-40
2023/04/03 09:22:50;;;;;;;;;;;6.80;66.20;;;;;;5072686;28;19916;-39
2023/04/03 09:25:18;;;;;;;;;;;6.90;66.30;;;;;;5073307;28;20294;-40
2023/04/03 09:27:44;;;;;;;;;;;6.90;67.00;;;;;;5072890;28;19923;-38
2023/04/03 09:30:14;;;;;;;;;;;7.10;69.60;;;;;;5072760;28;19975;-40
2023/04/03 09:32:40;;;;;;;;;;;7.10;69.60;;;;;;5072347;28;20367;-40
2023/04/03 09:35:25;;;;;;;;;;;7.20;70.40;;;;;;5072762;28;19919;-40
2023/04/03 09:37:52;;;;;;;;;;;7.30;67.60;;;;;;5072926;28;19912;-41
2023/04/03 09:40:28;;;;;;;;;;;7.40;68.60;;;;;;5072519;28;19912;-38
2023/04/03 09:42:54;;;;;;;;;;;7.40;63.90;;;;;;5072812;28;19912;-40
2023/04/03 09:45:24;;;;;;;;;;;7.50;68.40;;;;;;5072443;28;19916;-39
2023/04/03 09:48:03;;;;;;;;;;;7.60;65.20;;;;;;5072544;28;19990;-39
2023/04/03 09:50:29;;;;;;;;;;;7.60;67.70;;;;;;5072339;28;19912;-39
2023/04/03 09:52:55;;;;;;;;;;;7.70;67.40;;;;;;5072739;28;20394;-40
2023/04/03 09:55:29;;;;;;;;;;;7.70;66.40;;;;;;5072211;28;20007;-40
2023/04/03 09:57:57;;;;;;;;;;;7.70;65.90;;;;;;5072470;28;19919;-40
2023/04/03 10:00:25;;;;;;;;;;;7.80;68.70;;;;;;5072462;28;19919;-37
2023/04/03 10:02:55;;;;;;;;;;;7.80;70.10;;;;;;5072306;28;19913;-39
2023/04/03 10:05:26;;;;;;;;;;;7.90;68.10;;;;;;5072211;28;19912;-39
2023/04/03 10:07:51;;;;;;;;;;;7.90;71.00;;;;;;5072165;28;20287;-38
2023/04/03 10:10:23;;;;;;;;;;;8.00;73.30;;;;;;5072012;28;20010;-38
2023/04/03 10:13:02;;;;;;;;;;;8.10;73.10;;;;;;5072529;28;20290;-39
2023/04/03 10:15:30;;;;;;;;;;;8.00;72.70;;;;;;5072097;28;20056;-39
2023/04/03 10:18:07;;;;;;;;;;;8.10;72.20;;;;;;5072069;28;19913;-39
2023/04/03 10:20:59;;;;;;;;;;;8.10;71.00;;;;;;5072084;28;19951;-48
2023/04/03 10:23:26;;;;;;;;;;;8.10;74.20;;;;;;5071470;28;19963;-38
2023/04/03 10:25:55;;;;;;;;;;;8.20;74.30;;;;;;5070672;28;20272;-41
2023/04/03 10:28:36;;;;;;;;;;;8.30;73.00;;;;;;5071788;28;19982;-39
2023/04/03 10:31:21;;;;;;;;;;;8.30;73.80;;;;;;5071824;28;19962;-44
2023/04/03 10:33:59;;;;;;;;;;;8.40;75.00;;;;;;5071805;28;19986;-36
2023/04/03 10:36:28;;;;;;;;;;;8.40;69.90;;;;;;5071758;28;19916;-38
2023/04/03 10:39:13;;;;;;;;;;;8.40;71.50;;;;;;5071760;28;20007;-41
2023/04/03 10:41:47;;;;;;;;;;;8.40;68.10;;;;;;5071764;28;19991;-39
2023/04/03 10:44:31;;;;;;;;;;;8.40;71.70;;;;;;5071736;28;19912;-40
2023/04/03 10:47:26;;;;;;;;;;;8.50;70.60;;;;;;5071996;28;19987;-38
2023/04/03 10:49:54;;;;;;;;;;;8.50;72.10;;;;;;5070917;28;19916;-40
2023/04/03 10:52:22;;;;;;;;;;;8.60;71.60;;;;;;5071626;28;19967;-38
2023/04/03 10:54:56;;;;;;;;;;;8.70;71.90;;;;;;5071730;28;19919;-38
2023/04/03 10:57:23;;;;;;;;;;;8.80;71.80;;;;;;5071756;28;19919;-40
2023/04/03 11:00:04;;;;;;;;;;;8.80;69.20;;;;;;5070304;28;19942;-39
2023/04/03 11:02:47;;;;;;;;;;;8.90;69.20;;;;;;5072112;28;19917;-40
2023/04/03 11:05:35;;;;;;;;;;;8.80;68.20;;;;;;5071627;28;19912;-40
2023/04/03 11:08:13;;;;;;;;;;;8.90;69.50;;;;;;5071717;28;19920;-40
2023/04/03 11:10:44;;;;;;;;;;;8.90;70.60;;;;;;5071714;28;19920;-40
2023/04/03 11:13:38;;;;;;;;;;;9.00;68.80;;;;;;5071480;28;19916;-38
2023/04/03 11:16:05;;;;;;;;;;;9.00;70.00;;;;;;5069246;28;19913;-43
2023/04/03 11:18:44;;;;;;;;;;;9.10;71.40;;;;;;5071951;28;19912;-39
2023/04/03 11:21:21;;;;;;;;;;;9.20;73.50;;;;;;5071473;28;19912;-37
2023/04/03 11:23:47;;;;;;;;;;;9.30;74.00;;;;;;5071250;28;20327;-39
2023/04/03 11:26:14;;;;;;;;;;;9.40;74.80;;;;;;5071190;28;19928;-41
2023/04/03 11:28:40;;;;;;;;;;;9.40;72.70;;;;;;5071152;28;19916;-39
2023/04/03 11:31:06;;;;;;;;;;;9.50;69.60;;;;;;5071454;28;19913;-38
2023/04/03 11:33:41;;;;;;;;;;;9.60;74.20;;;;;;5071396;28;19912;-40
2023/04/03 11:36:12;;;;;;;;;;;9.60;73.00;;;;;;5070938;28;19912;-38
2023/04/03 11:38:41;;;;;;;;;;;9.60;73.60;;;;;;5071273;28;19989;-38
2023/04/03 11:41:08;;;;;;;;;;;9.70;72.00;;;;;;5071208;28;19928;-48
2023/04/03 11:43:39;;;;;;;;;;;9.70;71.90;;;;;;5071186;28;19912;-40
2023/04/03 11:46:06;;;;;;;;;;;9.70;71.60;;;;;;5069664;28;19913;-40
2023/04/03 11:48:34;;;;;;;;;;;9.80;71.10;;;;;;5071266;28;19959;-39
2023/04/03 11:51:00;;;;;;;;;;;9.90;71.00;;;;;;5069614;28;19916;-40
2023/04/03 11:53:27;;;;;;;;;;;9.90;69.10;;;;;;5069751;28;19920;-39
2023/04/03 11:55:54;;;;;;;;;;;10.00;70.70;;;;;;5072433;28;19920;-40
2023/04/03 11:58:22;;;;;;;;;;;10.00;64.50;;;;;;5074725;28;19916;-39
2023/04/03 12:00:50;;;;;;;;;;;10.00;69.10;;;;;;5074972;28;19913;-39
2023/04/03 12:03:28;;;;;;;;;;;10.00;68.20;;;;;;5074955;28;19912;-39
2023/04/03 12:05:54;;;;;;;;;;;10.10;66.90;;;;;;5075041;28;20011;-39
2023/04/03 12:08:26;;;;;;;;;;;10.20;65.70;;;;;;5074832;28;20008;-39
2023/04/03 12:11:10;;;;;;;;;;;10.20;64.50;;;;;;5075038;28;19912;-40
2023/04/03 12:14:02;;;;;;;;;;;10.20;62.00;;;;;;5074898;28;19923;-39
2023/04/03 12:16:30;;;;;;;;;;;10.20;65.80;;;;;;5074436;28;19912;-39
2023/04/03 12:18:58;;;;;;;;;;;10.30;64.70;;;;;;5074768;28;19935;-38
2023/04/03 12:21:29;;;;;;;;;;;10.30;66.30;;;;;;5074548;28;19927;-47
2023/04/03 12:23:57;;;;;;;;;;;10.30;66.60;;;;;;5074480;28;20004;-40
2023/04/03 12:26:27;;;;;;;;;;;10.30;67.60;;;;;;5074710;28;20264;-40
2023/04/03 12:28:53;;;;;;;;;;;10.40;66.90;;;;;;5074421;28;19936;-40
2023/04/03 12:31:20;;;;;;;;;;;10.40;57.80;;;;;;5074652;28;19923;-39
2023/04/03 12:34:00;;;;;;;;;;;10.50;63.00;;;;;;5074781;28;19943;-37
2023/04/03 12:36:30;;;;;;;;;;;10.50;63.20;;;;;;5074667;28;19978;-39
2023/04/03 12:39:10;;;;;;;;;;;10.60;64.00;;;;;;5074618;28;20371;-38
2023/04/03 12:41:40;;;;;;;;;;;10.70;65.70;;;;;;5074266;28;19912;-38
2023/04/03 12:44:20;;;;;;;;;;;10.70;56.60;;;;;;5074224;28;19916;-42
2023/04/03 12:46:48;;;;;;;;;;;10.70;61.00;;;;;;5074172;28;20245;-41
2023/04/03 12:49:19;;;;;;;;;;;10.70;62.30;;;;;;5072926;28;20326;-39
2023/04/03 12:51:46;;;;;;;;;;;10.70;64.90;;;;;;5074255;28;19962;-40
2023/04/03 12:54:27;;;;;;;;;;;10.80;65.30;;;;;;5074084;28;19908;-46
2023/04/03 12:57:08;;;;;;;;;;;10.80;67.20;;;;;;5073988;28;19955;-40
2023/04/03 12:59:34;;;;;;;;;;;10.90;66.20;;;;;;5074354;28;19915;-40
2023/04/03 13:02:00;;;;;;;;;;;11.00;61.20;;;;;;5074009;28;20015;-38
2023/04/03 13:04:30;;;;;;;;;;;11.00;62.90;;;;;;5073747;28;19908;-47
2023/04/03 13:06:56;;;;;;;;;;;11.00;60.50;;;;;;5072907;28;19908;-46
2023/04/03 13:09:25;;;;;;;;;;;11.10;65.00;;;;;;5072049;28;19936;-41
2023/04/03 13:11:54;;;;;;;;;;;11.10;65.00;;;;;;5073625;28;19915;-38
2023/04/03 13:14:21;;;;;;;;;;;11.20;62.10;;;;;;5073741;28;19912;-39
2023/04/03 13:17:13;;;;;;;;;;;11.20;63.70;;;;;;5073807;28;19912;-37
2023/04/03 13:19:39;;;;;;;;;;;11.30;63.10;;;;;;5073581;28;19923;-38
2023/04/03 13:22:14;;;;;;;;;;;11.30;64.70;;;;;;5073498;28;19916;-39
2023/04/03 13:24:39;;;;;;;;;;;11.30;63.90;;;;;;5073185;28;19978;-38
2023/04/03 13:27:05;;;;;;;;;;;11.30;63.80;;;;;;5073602;28;20300;-39
2023/04/03 13:29:33;;;;;;;;;;;11.40;65.10;;;;;;5073535;28;19976;-39
2023/04/03 13:32:00;;;;;;;;;;;11.40;65.20;;;;;;5073317;28;20309;-38
2023/04/03 13:34:28;;;;;;;;;;;11.50;64.60;;;;;;5072817;28;20229;-35
2023/04/03 13:36:58;;;;;;;;;;;11.50;62.00;;;;;;5073429;28;19983;-40
2023/04/03 13:39:26;;;;;;;;;;;11.50;63.00;;;;;;5073429;28;19962;-39
2023/04/03 13:41:52;;;;;;;;;;;11.60;65.50;;;;;;5072983;28;19955;-36
2023/04/03 13:44:21;;;;;;;;;;;11.60;64.90;;;;;;5072976;28;19909;-37
2023/04/03 13:46:57;;;;;;;;;;;11.70;64.20;;;;;;5072766;28;19909;-38
2023/04/03 13:49:34;;;;;;;;;;;11.70;65.90;;;;;;5072595;28;20003;-40
2023/04/03 13:52:00;;;;;;;;;;;11.80;66.00;;;;;;5072880;28;19989;-38
2023/04/03 13:54:31;;;;;;;;;;;11.90;63.90;;;;;;5073019;28;19912;-39
2023/04/03 13:56:58;;;;;;;;;;;11.90;64.20;;;;;;5073022;28;19909;-36
2023/04/03 13:59:26;;;;;;;;;;;12.00;63.20;;;;;;5072519;28;19909;-38
2023/04/03 14:01:58;;;;;;;;;;;12.00;61.20;;;;;;5072362;28;19950;-39
2023/04/03 14:04:25;;;;;;;;;;;12.00;63.20;;;;;;5072336;28;20391;-40
2023/04/03 14:06:51;;;;;;;;;;;12.10;62.40;;;;;;5072562;28;19908;-39
2023/04/03 14:09:18;;;;;;;;;;;12.20;62.10;;;;;;5072125;28;20288;-38
2023/04/03 14:11:43;;;;;;;;;;;12.30;62.30;;;;;;5072197;28;19950;-40
2023/04/03 14:14:12;;;;;;;;;;;12.40;62.20;;;;;;5072218;28;20376;-38
2023/04/03 14:16:39;;;;;;;;;;;12.40;62.20;;;;;;5072204;28;19978;-37
2023/04/03 14:19:04;;;;;;;;;;;12.40;62.50;;;;;;5071955;28;20049;-40
2023/04/03 14:21:30;;;;;;;;;;;12.40;59.10;;;;;;5072221;28;19948;-39
2023/04/03 14:23:56;;;;;;;;;;;12.50;61.00;;;;;;5070826;28;19920;-44
2023/04/03 14:26:23;;;;;;;;;;;12.50;57.90;;;;;;5072404;28;19962;-37
2023/04/03 14:28:51;;;;;;;;;;;12.40;56.80;;;;;;5072326;28;20456;-40
2023/04/03 14:31:17;;;;;;;;;;;12.40;58.80;;;;;;5072416;28;20353;-41
2023/04/03 14:33:43;;;;;;;;;;;12.50;60.40;;;;;;5072309;28;20334;-39